Time;durP1;ratioP1;P1;durP2;ratioP2;P2;SDS_P1;SDS_P2;PMS_P1;PMS_P2;Temp;Humidity;BMP_temperature;BMP_pressure;BME280_temperature;BME280_humidity;BME280_pressure;Samples;Min_cycle;Max_cycle;Signal;HPM_P1;HPM_P2
2021/01/15 17:00:42;;;;;;;4.65;2.20;;;1.40;89.20;;;;;;5192837;27;20151;-78
2021/01/15 17:03:11;;;;;;;3.05;1.75;;;1.80;94.60;;;;;;5155236;27;20034;-79
2021/01/15 17:05:37;;;;;;;2.80;1.58;;;1.80;94.60;;;;;;5157652;27;20079;-77
2021/01/15 17:08:03;;;;;;;3.28;1.40;;;1.90;94.70;;;;;;5174468;27;20031;-76
2021/01/15 17:10:30;;;;;;;2.70;1.38;;;1.90;94.70;;;;;;5187366;27;20042;-77
2021/01/15 17:12:57;;;;;;;3.22;1.58;;;1.90;94.80;;;;;;5179434;27;20083;-77
2021/01/15 17:15:24;;;;;;;2.30;1.27;;;1.90;94.80;;;;;;5138582;27;20038;-77
2021/01/15 17:17:50;;;;;;;2.08;1.10;;;2.00;94.90;;;;;;5171668;27;20038;-77
2021/01/15 17:20:17;;;;;;;1.38;0.80;;;2.00;94.90;;;;;;5173714;27;20042;-76
2021/01/15 17:22:46;;;;;;;1.45;0.98;;;2.00;94.90;;;;;;5174583;27;20038;-79
2021/01/15 17:25:17;;;;;;;1.55;0.80;;;1.90;94.90;;;;;;5172969;27;20054;-78
2021/01/15 17:27:46;;;;;;;1.48;0.70;;;2.00;95.00;;;;;;5171658;27;20038;-78
2021/01/15 17:30:13;;;;;;;1.77;0.90;;;2.00;95.00;;;;;;5134862;27;20043;-78
2021/01/15 17:32:38;;;;;;;1.92;0.90;;;2.00;95.00;;;;;;5171239;27;20083;-77
2021/01/15 17:35:06;;;;;;;1.38;0.90;;;2.00;95.00;;;;;;5170918;27;20038;-75
2021/01/15 17:37:39;;;;;;;1.58;0.80;;;2.00;95.10;;;;;;5153003;27;20038;-79
2021/01/15 17:40:07;;;;;;;1.75;1.10;;;1.90;95.10;;;;;;5171405;27;20049;-77
2021/01/15 17:42:34;;;;;;;2.00;0.98;;;1.90;95.10;;;;;;5171046;27;20485;-76
2021/01/15 17:45:00;;;;;;;2.00;0.90;;;2.00;95.10;;;;;;5184639;27;20048;-78
2021/01/15 17:47:28;;;;;;;1.35;0.70;;;1.90;95.10;;;;;;5189100;27;20051;-77
2021/01/15 17:49:55;;;;;;;1.02;0.70;;;1.90;95.10;;;;;;5167315;27;20124;-78
2021/01/15 17:52:21;;;;;;;1.25;0.60;;;2.00;95.10;;;;;;5168640;27;20042;-78
2021/01/15 17:54:46;;;;;;;1.20;0.80;;;1.90;95.00;;;;;;5168934;27;20400;-78
2021/01/15 17:57:12;;;;;;;1.00;0.70;;;1.90;95.00;;;;;;5187359;27;20066;-78
2021/01/15 17:59:38;;;;;;;1.35;0.82;;;2.00;95.00;;;;;;5185981;27;20046;-78
2021/01/15 18:02:04;;;;;;;1.48;0.90;;;2.00;95.00;;;;;;5173386;27;20043;-78
2021/01/15 18:04:30;;;;;;;1.08;0.65;;;1.90;95.00;;;;;;5173188;27;20043;-78
2021/01/15 18:06:55;;;;;;;2.60;1.15;;;1.90;95.00;;;;;;5173422;27;20039;-78
2021/01/15 18:09:21;;;;;;;1.23;0.80;;;2.00;95.00;;;;;;5154393;27;20091;-78
2021/01/15 18:11:49;;;;;;;1.58;0.98;;;1.90;95.00;;;;;;5175597;27;20042;-78
2021/01/15 18:14:15;;;;;;;1.52;0.80;;;1.90;94.90;;;;;;5173144;27;20038;-78
2021/01/15 18:16:41;;;;;;;1.85;0.77;;;2.00;94.90;;;;;;5174422;27;20486;-78
2021/01/15 18:19:08;;;;;;;1.17;0.60;;;2.00;94.90;;;;;;5175352;27;20043;-78
2021/01/15 18:21:43;;;;;;;1.85;1.10;;;2.00;94.90;;;;;;5155173;27;20035;-78
2021/01/15 18:24:10;;;;;;;1.73;0.80;;;2.00;94.80;;;;;;5154620;27;20419;-78
2021/01/15 18:26:37;;;;;;;1.55;0.80;;;2.00;94.80;;;;;;5154914;27;20044;-79
2021/01/15 18:29:03;;;;;;;1.35;0.80;;;1.90;94.80;;;;;;5173667;27;20066;-79
2021/01/15 18:31:29;;;;;;;1.77;0.90;;;2.00;94.80;;;;;;5142308;27;20035;-82
2021/01/15 18:33:55;;;;;;;1.73;0.88;;;2.00;94.80;;;;;;5141587;27;20035;-79
2021/01/15 18:36:22;;;;;;;1.90;1.08;;;1.90;94.80;;;;;;5159091;27;20035;-77
2021/01/15 18:38:50;;;;;;;1.15;0.75;;;1.90;94.70;;;;;;5121597;27;20460;-80
2021/01/15 18:41:17;;;;;;;1.83;1.00;;;1.90;94.80;;;;;;5139163;27;20046;-77
2021/01/15 18:43:44;;;;;;;2.35;0.98;;;2.00;94.80;;;;;;5124780;27;20498;-78
2021/01/15 18:46:10;;;;;;;1.85;0.80;;;2.10;94.80;;;;;;5152101;27;20043;-78
2021/01/15 18:48:41;;;;;;;2.05;0.95;;;1.90;94.70;;;;;;5172421;27;20038;-78
2021/01/15 18:51:07;;;;;;;2.80;1.20;;;1.90;94.70;;;;;;5152829;27;20475;-78
2021/01/15 18:53:33;;;;;;;1.60;0.80;;;2.00;94.70;;;;;;5174917;27;20042;-78
2021/01/15 18:55:58;;;;;;;1.30;0.90;;;2.00;94.80;;;;;;5175328;27;20126;-77
2021/01/15 18:58:24;;;;;;;1.27;0.85;;;1.90;94.80;;;;;;5174390;27;20067;-78
2021/01/15 19:00:50;;;;;;;2.65;1.27;;;1.90;94.70;;;;;;5174901;27;20045;-77
2021/01/15 19:03:15;;;;;;;1.50;0.90;;;1.90;94.70;;;;;;5173424;27;20045;-77
2021/01/15 19:05:41;;;;;;;0.98;0.60;;;1.90;94.70;;;;;;5174142;27;20046;-77
2021/01/15 19:08:07;;;;;;;1.67;0.93;;;1.90;94.70;;;;;;5172667;27;20045;-78
2021/01/15 19:10:33;;;;;;;1.67;1.00;;;1.90;94.70;;;;;;5135947;27;20043;-78
2021/01/15 19:13:00;;;;;;;1.45;0.77;;;1.80;94.60;;;;;;5172108;27;20102;-77
2021/01/15 19:15:34;;;;;;;1.05;0.68;;;1.80;94.60;;;;;;5155904;27;20091;-78
2021/01/15 19:18:05;;;;;;;3.20;1.55;;;1.80;94.60;;;;;;5173870;27;20045;-78
2021/01/15 19:20:32;;;;;;;3.90;1.40;;;2.00;94.60;;;;;;5154137;27;20087;-78
2021/01/15 19:22:58;;;;;;;3.03;1.20;;;1.80;94.90;;;;;;5152113;27;20106;-78
2021/01/15 19:25:24;;;;;;;1.52;0.80;;;1.80;94.60;;;;;;5153889;27;20042;-78
2021/01/15 19:27:49;;;;;;;1.67;0.80;;;1.90;94.60;;;;;;5154154;27;20029;-78
2021/01/15 19:30:19;;;;;;;1.55;0.82;;;1.80;94.50;;;;;;5150423;27;20039;-78
2021/01/15 19:32:45;;;;;;;1.55;0.75;;;1.80;94.50;;;;;;5170330;27;20066;-79
2021/01/15 19:35:11;;;;;;;1.58;0.95;;;1.80;94.50;;;;;;5171243;27;20042;-79
2021/01/15 19:37:37;;;;;;;2.38;1.02;;;1.80;94.50;;;;;;5151607;27;20698;-79
2021/01/15 19:40:05;;;;;;;1.92;0.90;;;1.90;94.50;;;;;;5171701;27;20043;-78
2021/01/15 19:42:33;;;;;;;1.45;0.80;;;1.80;94.50;;;;;;5133677;27;20034;-78
2021/01/15 19:45:01;;;;;;;1.80;1.00;;;1.80;94.50;;;;;;5170107;27;20540;-78
2021/01/15 19:47:28;;;;;;;1.70;1.05;;;1.80;94.50;;;;;;5152157;27;20038;-78
2021/01/15 19:49:54;;;;;;;1.50;0.90;;;1.90;94.50;;;;;;5170984;27;20114;-78
2021/01/15 19:52:19;;;;;;;2.25;1.05;;;1.90;94.50;;;;;;5133604;27;20042;-80
2021/01/15 19:54:46;;;;;;;2.00;0.98;;;1.90;94.50;;;;;;5150957;27;20113;-79
2021/01/15 19:57:12;;;;;;;2.25;1.02;;;1.90;94.50;;;;;;5171736;27;20030;-79
2021/01/15 19:59:37;;;;;;;1.40;0.90;;;1.90;94.40;;;;;;5169496;27;20039;-80
2021/01/15 20:02:03;;;;;;;1.50;0.73;;;1.80;94.40;;;;;;5151653;27;20088;-79
2021/01/15 20:04:29;;;;;;;1.95;0.90;;;1.80;94.40;;;;;;5170599;27;20038;-80
2021/01/15 20:06:55;;;;;;;1.52;0.82;;;1.80;94.40;;;;;;5171525;27;20106;-80
2021/01/15 20:09:20;;;;;;;2.13;1.08;;;1.90;94.40;;;;;;5172035;27;20047;-80
2021/01/15 20:11:46;;;;;;;1.42;0.60;;;1.90;94.40;;;;;;5171306;27;20489;-80
2021/01/15 20:14:12;;;;;;;0.70;0.55;;;1.80;94.40;;;;;;5152500;27;20027;-80
2021/01/15 20:16:37;;;;;;;0.82;0.60;;;1.90;94.40;;;;;;5172335;27;20494;-79
2021/01/15 20:19:03;;;;;;;0.80;0.52;;;1.90;94.40;;;;;;5135678;27;20049;-80
2021/01/15 20:21:29;;;;;;;1.15;0.60;;;1.90;94.40;;;;;;5166136;27;20038;-78
2021/01/15 20:23:55;;;;;;;1.40;0.70;;;1.90;94.40;;;;;;5134396;27;20039;-78
2021/01/15 20:26:20;;;;;;;0.57;0.43;;;1.90;94.30;;;;;;5153950;27;20390;-78
2021/01/15 20:28:47;;;;;;;1.00;0.55;;;1.90;94.30;;;;;;5135480;27;20046;-77
2021/01/15 20:31:15;;;;;;;1.95;0.90;;;1.90;94.30;;;;;;5153936;27;20042;-77
2021/01/15 20:33:41;;;;;;;1.27;0.73;;;1.90;94.30;;;;;;5154087;27;20122;-77
2021/01/15 20:36:07;;;;;;;1.58;0.80;;;1.90;94.30;;;;;;5153859;27;20034;-78
2021/01/15 20:38:32;;;;;;;2.53;1.00;;;1.90;94.30;;;;;;5154920;27;20209;-78
2021/01/15 20:40:58;;;;;;;1.40;0.75;;;1.80;94.20;;;;;;5135323;27;20494;-78
2021/01/15 20:43:24;;;;;;;2.22;0.88;;;1.80;94.20;;;;;;5153545;27;20227;-78
2021/01/15 20:45:49;;;;;;;1.38;0.90;;;1.90;94.20;;;;;;5153618;27;20070;-78
2021/01/15 20:48:15;;;;;;;2.45;1.10;;;1.90;94.20;;;;;;5135235;27;20042;-78
2021/01/15 20:50:41;;;;;;;1.83;1.00;;;1.90;94.20;;;;;;5153440;27;20038;-75
2021/01/15 20:53:09;;;;;;;2.38;1.10;;;1.90;94.20;;;;;;5153385;27;20125;-76
2021/01/15 20:55:35;;;;;;;1.63;0.93;;;1.90;94.20;;;;;;5153614;27;20062;-76
2021/01/15 20:58:02;;;;;;;2.08;0.90;;;1.90;94.20;;;;;;5153927;27;20046;-75
2021/01/15 21:00:29;;;;;;;1.55;0.70;;;1.90;94.20;;;;;;5153457;27;20370;-75
2021/01/15 21:02:58;;;;;;;1.90;0.85;;;1.90;94.20;;;;;;5133559;27;20043;-76
2021/01/15 21:05:24;;;;;;;1.17;0.65;;;1.90;94.20;;;;;;5154966;27;20034;-75
2021/01/15 21:07:50;;;;;;;1.45;0.75;;;1.90;94.20;;;;;;5153389;27;20054;-75
2021/01/15 21:10:16;;;;;;;1.00;0.80;;;1.90;94.10;;;;;;5134085;27;20051;-75
2021/01/15 21:12:41;;;;;;;2.72;1.20;;;1.90;94.20;;;;;;5153491;27;20031;-75
2021/01/15 21:15:07;;;;;;;2.35;1.10;;;1.90;94.10;;;;;;5153620;27;20087;-77
2021/01/15 21:17:33;;;;;;;2.33;1.00;;;1.90;94.10;;;;;;5135425;27;20030;-75
2021/01/15 21:19:59;;;;;;;2.28;1.23;;;1.80;94.10;;;;;;5153106;27;20065;-79
2021/01/15 21:22:24;;;;;;;2.63;1.20;;;1.90;94.10;;;;;;5117790;27;20083;-75
2021/01/15 21:24:50;;;;;;;1.65;0.98;;;1.90;94.10;;;;;;5153142;27;20035;-78
2021/01/15 21:27:16;;;;;;;1.27;0.68;;;1.90;94.00;;;;;;5153124;27;20073;-76
2021/01/15 21:29:41;;;;;;;1.52;0.77;;;2.00;94.10;;;;;;5134575;27;20051;-75
2021/01/15 21:32:07;;;;;;;1.35;0.85;;;1.90;94.00;;;;;;5153448;27;20054;-76
2021/01/15 21:34:33;;;;;;;1.73;0.80;;;1.90;94.00;;;;;;5152849;27;20121;-77
2021/01/15 21:36:59;;;;;;;1.60;0.98;;;2.00;94.30;;;;;;5156360;27;20038;-76
2021/01/15 21:39:24;;;;;;;1.80;0.98;;;1.80;94.00;;;;;;5156663;27;20543;-75
2021/01/15 21:41:51;;;;;;;2.15;1.13;;;1.90;94.00;;;;;;5156444;27;20110;-75
2021/01/15 21:44:18;;;;;;;2.35;1.15;;;1.90;94.00;;;;;;5156479;27;20046;-76
2021/01/15 21:46:46;;;;;;;2.83;1.35;;;1.90;94.00;;;;;;5156643;27;20054;-76
2021/01/15 21:49:14;;;;;;;2.28;1.13;;;1.90;94.00;;;;;;5156786;27;20053;-76
2021/01/15 21:51:43;;;;;;;3.03;1.40;;;1.80;94.00;;;;;;5152563;27;20035;-76
2021/01/15 21:54:10;;;;;;;1.50;0.95;;;1.90;94.00;;;;;;5156493;27;20501;-75
2021/01/15 21:56:38;;;;;;;1.98;1.08;;;1.80;93.90;;;;;;5156495;27;20526;-76
2021/01/15 21:59:04;;;;;;;1.98;1.17;;;2.00;94.00;;;;;;5156638;27;20046;-75
2021/01/15 22:01:30;;;;;;;1.42;0.82;;;1.80;93.90;;;;;;5156592;27;20122;-75
2021/01/15 22:03:56;;;;;;;1.65;0.80;;;1.90;93.90;;;;;;5156610;27;20042;-75
2021/01/15 22:06:22;;;;;;;1.52;0.77;;;1.80;93.90;;;;;;5156279;27;20151;-74
2021/01/15 22:08:47;;;;;;;2.15;1.10;;;1.80;93.90;;;;;;5155959;27;20031;-74
2021/01/15 22:11:13;;;;;;;2.40;1.13;;;1.80;93.90;;;;;;5156155;27;20038;-74
2021/01/15 22:13:39;;;;;;;1.77;0.90;;;1.80;93.90;;;;;;5156082;27;20033;-74
2021/01/15 22:16:05;;;;;;;1.77;1.08;;;1.80;93.90;;;;;;5156079;27;20039;-75
2021/01/15 22:18:31;;;;;;;1.38;0.80;;;1.80;93.90;;;;;;5156076;27;20125;-76
2021/01/15 22:20:57;;;;;;;1.73;1.15;;;1.80;93.90;;;;;;5156159;27;20043;-76
2021/01/15 22:23:22;;;;;;;1.95;1.08;;;1.80;93.90;;;;;;5137353;27;20549;-75
2021/01/15 22:25:49;;;;;;;1.73;1.08;;;1.80;93.80;;;;;;5155970;27;20125;-75
2021/01/15 22:28:19;;;;;;;1.27;0.70;;;1.80;93.80;;;;;;5155977;27;20041;-76
2021/01/15 22:30:46;;;;;;;1.13;0.60;;;1.90;93.90;;;;;;5135642;27;20035;-76
2021/01/15 22:33:14;;;;;;;1.45;0.80;;;1.80;93.80;;;;;;5155774;27;20482;-76
2021/01/15 22:35:41;;;;;;;2.40;0.95;;;1.80;93.80;;;;;;5120907;27;20042;-76
2021/01/15 22:38:16;;;;;;;1.02;0.70;;;1.80;93.80;;;;;;5156039;27;20115;-78
2021/01/15 22:40:43;;;;;;;2.63;1.13;;;1.80;93.80;;;;;;5120303;27;20038;-76
2021/01/15 22:43:09;;;;;;;1.38;0.80;;;1.80;93.80;;;;;;5155702;27;20038;-78
2021/01/15 22:45:35;;;;;;;1.83;0.73;;;1.80;93.90;;;;;;5120226;27;20423;-78
2021/01/15 22:48:01;;;;;;;1.08;0.70;;;1.80;93.80;;;;;;5137305;27;20118;-78
2021/01/15 22:50:27;;;;;;;2.25;0.90;;;1.80;93.80;;;;;;5156111;27;20050;-77
2021/01/15 22:52:53;;;;;;;2.28;0.93;;;1.90;93.80;;;;;;5136138;27;20402;-79
2021/01/15 22:55:18;;;;;;;2.22;0.85;;;1.80;93.80;;;;;;5137334;27;20038;-78
2021/01/15 22:57:45;;;;;;;1.58;0.93;;;1.80;93.80;;;;;;5156166;27;20070;-78
2021/01/15 23:00:19;;;;;;;2.08;0.93;;;1.80;93.80;;;;;;5156009;27;20169;-78
2021/01/15 23:02:46;;;;;;;2.30;1.15;;;1.80;93.80;;;;;;5119649;27;20035;-77
2021/01/15 23:05:13;;;;;;;2.35;1.10;;;1.70;93.80;;;;;;5155413;27;20524;-79
2021/01/15 23:07:59;;;;;;;2.40;1.20;;;1.80;93.70;;;;;;5155360;27;20066;-79
2021/01/15 23:10:27;;;;;;;2.78;1.30;;;1.80;93.70;;;;;;5155394;27;20108;-78
2021/01/15 23:12:53;;;;;;;1.20;0.73;;;1.80;93.70;;;;;;5136935;27;20509;-79
2021/01/15 23:15:21;;;;;;;2.20;0.90;;;1.80;93.70;;;;;;5137039;27;20066;-79
2021/01/15 23:17:48;;;;;;;2.13;1.10;;;1.80;93.70;;;;;;5155904;27;20034;-74
2021/01/15 23:20:16;;;;;;;2.10;1.02;;;1.80;93.70;;;;;;5155273;27;20088;-75
2021/01/15 23:22:43;;;;;;;2.38;1.10;;;1.70;93.60;;;;;;5155234;27;20401;-75
2021/01/15 23:25:12;;;;;;;1.45;0.80;;;1.80;93.70;;;;;;5155182;27;20405;-75
2021/01/15 23:27:37;;;;;;;1.13;0.70;;;1.80;93.70;;;;;;5155169;27;20043;-75
2021/01/15 23:30:11;;;;;;;1.48;0.80;;;1.80;93.60;;;;;;5137221;27;20095;-75
2021/01/15 23:32:38;;;;;;;1.60;0.80;;;1.70;93.60;;;;;;5119974;27;20038;-74
2021/01/15 23:35:06;;;;;;;1.13;0.80;;;1.80;93.60;;;;;;5119974;27;20035;-77
2021/01/15 23:37:32;;;;;;;1.10;0.70;;;1.80;93.60;;;;;;5119693;27;20047;-78
2021/01/15 23:39:58;;;;;;;2.03;0.82;;;1.80;93.60;;;;;;5136542;27;20034;-80
2021/01/15 23:42:23;;;;;;;1.83;1.20;;;1.80;93.60;;;;;;5119312;27;20087;-79
2021/01/15 23:44:49;;;;;;;1.38;0.88;;;1.80;93.60;;;;;;5136376;27;20084;-78
2021/01/15 23:47:15;;;;;;;1.67;0.93;;;1.80;93.50;;;;;;5154852;27;20058;-77
2021/01/15 23:49:41;;;;;;;1.40;0.80;;;1.80;93.50;;;;;;5136387;27;20043;-81
2021/01/15 23:52:06;;;;;;;1.80;1.00;;;1.80;93.50;;;;;;5154811;27;20474;-80
2021/01/15 23:54:32;;;;;;;2.13;1.00;;;2.00;93.60;;;;;;5135697;27;20060;-74
2021/01/15 23:56:58;;;;;;;2.55;1.30;;;1.80;93.60;;;;;;5155071;27;20156;-74
2021/01/15 23:59:23;;;;;;;2.55;1.20;;;1.80;93.50;;;;;;5154047;27;20490;-74
